sensor_id;sensor_type;location;lat;lon;timestamp;temperature;humidity
41437;DHT22;27178;49.460;10.850;2022-08-21T00:01:51;22.90;84.90
41437;DHT22;27178;49.460;10.850;2022-08-21T00:04:20;22.90;85.00
41437;DHT22;27178;49.460;10.850;2022-08-21T00:06:55;22.80;85.00
41437;DHT22;27178;49.460;10.850;2022-08-21T00:09:25;22.80;85.30
41437;DHT22;27178;49.460;10.850;2022-08-21T00:11:53;22.80;85.00
41437;DHT22;27178;49.460;10.850;2022-08-21T00:14:21;22.80;85.00
41437;DHT22;27178;49.460;10.850;2022-08-21T00:16:50;22.70;84.90
41437;DHT22;27178;49.460;10.850;2022-08-21T00:19:25;22.70;84.90
41437;DHT22;27178;49.460;10.850;2022-08-21T00:21:54;22.70;84.30
41437;DHT22;27178;49.460;10.850;2022-08-21T00:24:25;22.70;84.60
41437;DHT22;27178;49.460;10.850;2022-08-21T00:26:53;22.60;85.00
41437;DHT22;27178;49.460;10.850;2022-08-21T00:29:22;22.60;85.00
41437;DHT22;27178;49.460;10.850;2022-08-21T00:31:51;22.60;85.50
41437;DHT22;27178;49.460;10.850;2022-08-21T00:34:19;22.60;85.50
41437;DHT22;27178;49.460;10.850;2022-08-21T00:36:48;22.60;85.60
41437;DHT22;27178;49.460;10.850;2022-08-21T00:39:16;22.60;85.10
41437;DHT22;27178;49.460;10.850;2022-08-21T00:41:46;22.50;84.80
41437;DHT22;27178;49.460;10.850;2022-08-21T00:44:15;22.50;84.60
41437;DHT22;27178;49.460;10.850;2022-08-21T00:46:44;22.50;85.20
41437;DHT22;27178;49.460;10.850;2022-08-21T00:49:13;22.50;85.00
41437;DHT22;27178;49.460;10.850;2022-08-21T00:51:45;22.50;84.80
41437;DHT22;27178;49.460;10.850;2022-08-21T00:54:15;22.50;84.70
41437;DHT22;27178;49.460;10.850;2022-08-21T00:56:50;22.50;85.50
41437;DHT22;27178;49.460;10.850;2022-08-21T00:59:21;22.50;85.60
41437;DHT22;27178;49.460;10.850;2022-08-21T01:01:51;22.50;86.10
41437;DHT22;27178;49.460;10.850;2022-08-21T01:04:20;22.50;85.60
41437;DHT22;27178;49.460;10.850;2022-08-21T01:06:49;22.50;85.50
41437;DHT22;27178;49.460;10.850;2022-08-21T01:09:18;22.50;85.60
41437;DHT22;27178;49.460;10.850;2022-08-21T01:11:48;22.50;85.40
41437;DHT22;27178;49.460;10.850;2022-08-21T01:14:17;22.50;85.40
41437;DHT22;27178;49.460;10.850;2022-08-21T01:16:49;22.50;85.20
41437;DHT22;27178;49.460;10.850;2022-08-21T01:19:20;22.50;85.50
41437;DHT22;27178;49.460;10.850;2022-08-21T01:21:50;22.50;85.80
41437;DHT22;27178;49.460;10.850;2022-08-21T01:24:18;22.50;85.90
41437;DHT22;27178;49.460;10.850;2022-08-21T01:26:47;22.50;85.40
41437;DHT22;27178;49.460;10.850;2022-08-21T01:29:23;22.50;85.60
41437;DHT22;27178;49.460;10.850;2022-08-21T01:31:54;22.40;85.20
41437;DHT22;27178;49.460;10.850;2022-08-21T01:34:23;22.40;85.20
41437;DHT22;27178;49.460;10.850;2022-08-21T01:36:53;22.40;85.20
41437;DHT22;27178;49.460;10.850;2022-08-21T01:39:21;22.40;84.80
41437;DHT22;27178;49.460;10.850;2022-08-21T01:41:49;22.40;85.00
41437;DHT22;27178;49.460;10.850;2022-08-21T01:44:20;22.30;85.20
41437;DHT22;27178;49.460;10.850;2022-08-21T01:46:49;22.30;85.40
41437;DHT22;27178;49.460;10.850;2022-08-21T01:49:18;22.30;85.10
41437;DHT22;27178;49.460;10.850;2022-08-21T01:51:46;22.30;85.40
41437;DHT22;27178;49.460;10.850;2022-08-21T01:54:16;22.30;85.60
41437;DHT22;27178;49.460;10.850;2022-08-21T01:56:47;22.30;85.60
41437;DHT22;27178;49.460;10.850;2022-08-21T01:59:17;22.30;85.20
41437;DHT22;27178;49.460;10.850;2022-08-21T02:01:46;22.30;85.60
41437;DHT22;27178;49.460;10.850;2022-08-21T02:04:16;22.30;85.50
41437;DHT22;27178;49.460;10.850;2022-08-21T02:06:44;22.20;85.50
41437;DHT22;27178;49.460;10.850;2022-08-21T02:09:13;22.20;85.50
41437;DHT22;27178;49.460;10.850;2022-08-21T02:11:43;22.20;85.50
41437;DHT22;27178;49.460;10.850;2022-08-21T02:14:14;22.20;85.40
41437;DHT22;27178;49.460;10.850;2022-08-21T02:16:59;22.20;85.20
41437;DHT22;27178;49.460;10.850;2022-08-21T02:19:35;22.20;85.80
41437;DHT22;27178;49.460;10.850;2022-08-21T02:22:07;22.20;85.70
41437;DHT22;27178;49.460;10.850;2022-08-21T02:24:36;22.20;85.20
41437;DHT22;27178;49.460;10.850;2022-08-21T02:27:22;22.10;85.50
41437;DHT22;27178;49.460;10.850;2022-08-21T02:29:53;22.10;85.60
41437;DHT22;27178;49.460;10.850;2022-08-21T02:32:21;22.10;85.60
41437;DHT22;27178;49.460;10.850;2022-08-21T02:34:49;22.10;85.60
41437;DHT22;27178;49.460;10.850;2022-08-21T02:37:18;22.10;86.00
41437;DHT22;27178;49.460;10.850;2022-08-21T02:39:46;22.10;85.60
41437;DHT22;27178;49.460;10.850;2022-08-21T02:42:15;22.10;85.70
41437;DHT22;27178;49.460;10.850;2022-08-21T02:44:45;22.10;85.90
41437;DHT22;27178;49.460;10.850;2022-08-21T02:47:13;22.10;85.70
41437;DHT22;27178;49.460;10.850;2022-08-21T02:49:42;22.10;85.70
41437;DHT22;27178;49.460;10.850;2022-08-21T02:52:10;22.10;85.80
41437;DHT22;27178;49.460;10.850;2022-08-21T02:54:39;22.10;85.90
41437;DHT22;27178;49.460;10.850;2022-08-21T02:57:07;22.10;85.30
41437;DHT22;27178;49.460;10.850;2022-08-21T02:59:36;22.00;85.50
41437;DHT22;27178;49.460;10.850;2022-08-21T03:02:06;22.00;85.60
41437;DHT22;27178;49.460;10.850;2022-08-21T03:04:34;22.00;85.10
41437;DHT22;27178;49.460;10.850;2022-08-21T03:07:03;22.00;85.60
41437;DHT22;27178;49.460;10.850;2022-08-21T03:09:36;22.00;86.00
41437;DHT22;27178;49.460;10.850;2022-08-21T03:12:21;22.00;86.00
41437;DHT22;27178;49.460;10.850;2022-08-21T03:14:49;22.00;86.30
41437;DHT22;27178;49.460;10.850;2022-08-21T03:17:19;22.00;86.50
41437;DHT22;27178;49.460;10.850;2022-08-21T03:19:56;22.00;86.60
41437;DHT22;27178;49.460;10.850;2022-08-21T03:22:24;22.00;86.80
41437;DHT22;27178;49.460;10.850;2022-08-21T03:24:54;22.00;86.20
41437;DHT22;27178;49.460;10.850;2022-08-21T03:27:23;22.00;86.20
41437;DHT22;27178;49.460;10.850;2022-08-21T03:29:55;22.00;86.30
41437;DHT22;27178;49.460;10.850;2022-08-21T03:32:26;22.00;86.40
41437;DHT22;27178;49.460;10.850;2022-08-21T03:34:55;22.00;86.60
41437;DHT22;27178;49.460;10.850;2022-08-21T03:37:24;22.00;86.50
41437;DHT22;27178;49.460;10.850;2022-08-21T03:39:52;22.00;86.40
41437;DHT22;27178;49.460;10.850;2022-08-21T03:42:20;22.00;86.20
41437;DHT22;27178;49.460;10.850;2022-08-21T03:44:50;22.00;85.80
41437;DHT22;27178;49.460;10.850;2022-08-21T03:47:19;22.00;85.40
41437;DHT22;27178;49.460;10.850;2022-08-21T03:49:50;22.00;85.70
41437;DHT22;27178;49.460;10.850;2022-08-21T03:52:19;22.00;85.60
41437;DHT22;27178;49.460;10.850;2022-08-21T03:54:47;22.00;85.40
41437;DHT22;27178;49.460;10.850;2022-08-21T03:57:17;22.00;85.80
41437;DHT22;27178;49.460;10.850;2022-08-21T03:59:46;21.90;86.00
41437;DHT22;27178;49.460;10.850;2022-08-21T04:02:17;21.90;86.00
41437;DHT22;27178;49.460;10.850;2022-08-21T04:04:47;21.90;86.20
41437;DHT22;27178;49.460;10.850;2022-08-21T04:07:16;21.90;86.00
41437;DHT22;27178;49.460;10.850;2022-08-21T04:09:45;21.90;86.00
41437;DHT22;27178;49.460;10.850;2022-08-21T04:12:13;21.90;86.30
41437;DHT22;27178;49.460;10.850;2022-08-21T04:14:41;21.90;86.30
41437;DHT22;27178;49.460;10.850;2022-08-21T04:17:10;21.90;86.00
41437;DHT22;27178;49.460;10.850;2022-08-21T04:19:38;21.90;86.00
41437;DHT22;27178;49.460;10.850;2022-08-21T04:22:07;21.90;86.00
41437;DHT22;27178;49.460;10.850;2022-08-21T04:24:37;21.90;85.80
41437;DHT22;27178;49.460;10.850;2022-08-21T04:27:05;21.80;86.00
41437;DHT22;27178;49.460;10.850;2022-08-21T04:29:33;21.80;85.80
41437;DHT22;27178;49.460;10.850;2022-08-21T04:32:06;21.80;85.60
41437;DHT22;27178;49.460;10.850;2022-08-21T04:34:34;21.80;85.60
41437;DHT22;27178;49.460;10.850;2022-08-21T04:37:03;21.70;85.90
41437;DHT22;27178;49.460;10.850;2022-08-21T04:39:31;21.70;86.00
41437;DHT22;27178;49.460;10.850;2022-08-21T04:42:01;21.70;85.80
41437;DHT22;27178;49.460;10.850;2022-08-21T04:44:29;21.70;85.40
41437;DHT22;27178;49.460;10.850;2022-08-21T04:46:58;21.70;85.30
41437;DHT22;27178;49.460;10.850;2022-08-21T04:49:27;21.70;86.50
41437;DHT22;27178;49.460;10.850;2022-08-21T04:51:55;21.70;85.60
41437;DHT22;27178;49.460;10.850;2022-08-21T04:54:23;21.70;85.40
41437;DHT22;27178;49.460;10.850;2022-08-21T04:56:55;21.60;85.40
41437;DHT22;27178;49.460;10.850;2022-08-21T04:59:30;21.60;85.50
41437;DHT22;27178;49.460;10.850;2022-08-21T05:02:00;21.60;85.00
41437;DHT22;27178;49.460;10.850;2022-08-21T05:04:30;21.60;85.00
41437;DHT22;27178;49.460;10.850;2022-08-21T05:07:04;21.60;84.60
41437;DHT22;27178;49.460;10.850;2022-08-21T05:09:34;21.60;84.20
41437;DHT22;27178;49.460;10.850;2022-08-21T05:12:03;21.60;84.20
41437;DHT22;27178;49.460;10.850;2022-08-21T05:14:34;21.50;84.50
41437;DHT22;27178;49.460;10.850;2022-08-21T05:17:03;21.50;84.70
41437;DHT22;27178;49.460;10.850;2022-08-21T05:19:31;21.50;85.00
41437;DHT22;27178;49.460;10.850;2022-08-21T05:22:00;21.50;85.30
41437;DHT22;27178;49.460;10.850;2022-08-21T05:24:28;21.50;85.00
41437;DHT22;27178;49.460;10.850;2022-08-21T05:26:57;21.50;85.00
41437;DHT22;27178;49.460;10.850;2022-08-21T05:29:29;21.50;85.10
41437;DHT22;27178;49.460;10.850;2022-08-21T05:32:00;21.50;85.30
41437;DHT22;27178;49.460;10.850;2022-08-21T05:34:28;21.40;85.00
41437;DHT22;27178;49.460;10.850;2022-08-21T05:36:57;21.50;85.20
41437;DHT22;27178;49.460;10.850;2022-08-21T05:39:31;21.40;85.10
41437;DHT22;27178;49.460;10.850;2022-08-21T05:42:20;21.50;85.80
41437;DHT22;27178;49.460;10.850;2022-08-21T05:44:49;21.40;85.70
41437;DHT22;27178;49.460;10.850;2022-08-21T05:47:19;21.50;86.90
41437;DHT22;27178;49.460;10.850;2022-08-21T05:49:48;21.40;85.60
41437;DHT22;27178;49.460;10.850;2022-08-21T05:52:19;21.40;85.70
41437;DHT22;27178;49.460;10.850;2022-08-21T05:54:48;21.50;85.50
41437;DHT22;27178;49.460;10.850;2022-08-21T05:57:16;21.50;85.90
41437;DHT22;27178;49.460;10.850;2022-08-21T05:59:45;21.50;86.20
41437;DHT22;27178;49.460;10.850;2022-08-21T06:02:18;21.50;86.30
41437;DHT22;27178;49.460;10.850;2022-08-21T06:04:47;21.50;85.70
41437;DHT22;27178;49.460;10.850;2022-08-21T06:07:16;21.50;85.90
41437;DHT22;27178;49.460;10.850;2022-08-21T06:09:44;21.60;86.10
41437;DHT22;27178;49.460;10.850;2022-08-21T06:12:13;21.60;86.20
41437;DHT22;27178;49.460;10.850;2022-08-21T06:14:41;21.60;86.00
41437;DHT22;27178;49.460;10.850;2022-08-21T06:17:11;21.60;86.20
41437;DHT22;27178;49.460;10.850;2022-08-21T06:19:42;21.60;86.50
41437;DHT22;27178;49.460;10.850;2022-08-21T06:22:11;21.70;86.30
41437;DHT22;27178;49.460;10.850;2022-08-21T06:24:40;21.70;86.50
41437;DHT22;27178;49.460;10.850;2022-08-21T06:27:09;21.70;86.50
41437;DHT22;27178;49.460;10.850;2022-08-21T06:29:37;21.70;86.70
41437;DHT22;27178;49.460;10.850;2022-08-21T06:32:10;21.70;86.80
41437;DHT22;27178;49.460;10.850;2022-08-21T06:34:43;21.80;87.00
41437;DHT22;27178;49.460;10.850;2022-08-21T06:37:11;21.80;86.90
41437;DHT22;27178;49.460;10.850;2022-08-21T06:39:39;21.80;87.10
41437;DHT22;27178;49.460;10.850;2022-08-21T06:42:13;21.90;86.80
41437;DHT22;27178;49.460;10.850;2022-08-21T06:44:42;21.90;86.70
41437;DHT22;27178;49.460;10.850;2022-08-21T06:47:11;21.90;86.80
41437;DHT22;27178;49.460;10.850;2022-08-21T06:49:40;21.90;86.60
41437;DHT22;27178;49.460;10.850;2022-08-21T06:52:11;22.00;86.30
41437;DHT22;27178;49.460;10.850;2022-08-21T06:54:40;21.90;86.30
41437;DHT22;27178;49.460;10.850;2022-08-21T06:57:08;22.00;86.50
41437;DHT22;27178;49.460;10.850;2022-08-21T06:59:38;22.00;86.20
41437;DHT22;27178;49.460;10.850;2022-08-21T07:02:06;22.00;86.10
41437;DHT22;27178;49.460;10.850;2022-08-21T07:04:34;22.00;86.00
41437;DHT22;27178;49.460;10.850;2022-08-21T07:07:03;22.00;86.30
41437;DHT22;27178;49.460;10.850;2022-08-21T07:09:33;22.10;86.70
41437;DHT22;27178;49.460;10.850;2022-08-21T07:12:02;22.10;86.60
41437;DHT22;27178;49.460;10.850;2022-08-21T07:14:30;22.10;86.60
41437;DHT22;27178;49.460;10.850;2022-08-21T07:16:59;22.10;86.30
41437;DHT22;27178;49.460;10.850;2022-08-21T07:19:28;22.20;87.40
41437;DHT22;27178;49.460;10.850;2022-08-21T07:21:59;22.20;86.60
41437;DHT22;27178;49.460;10.850;2022-08-21T07:24:28;22.20;86.70
41437;DHT22;27178;49.460;10.850;2022-08-21T07:26:58;22.30;87.10
41437;DHT22;27178;49.460;10.850;2022-08-21T07:29:27;22.30;86.80
41437;DHT22;27178;49.460;10.850;2022-08-21T07:31:55;22.30;86.50
41437;DHT22;27178;49.460;10.850;2022-08-21T07:34:23;22.30;86.60
41437;DHT22;27178;49.460;10.850;2022-08-21T07:36:52;22.40;86.50
41437;DHT22;27178;49.460;10.850;2022-08-21T07:39:20;22.40;86.50
41437;DHT22;27178;49.460;10.850;2022-08-21T07:41:49;22.40;86.50
41437;DHT22;27178;49.460;10.850;2022-08-21T07:44:19;22.40;86.30
41437;DHT22;27178;49.460;10.850;2022-08-21T07:46:47;22.40;86.00
41437;DHT22;27178;49.460;10.850;2022-08-21T07:49:15;22.50;86.20
41437;DHT22;27178;49.460;10.850;2022-08-21T07:51:44;22.50;85.90
41437;DHT22;27178;49.460;10.850;2022-08-21T07:54:13;22.50;86.00
41437;DHT22;27178;49.460;10.850;2022-08-21T07:56:43;22.50;85.80
41437;DHT22;27178;49.460;10.850;2022-08-21T07:59:12;22.50;85.80
41437;DHT22;27178;49.460;10.850;2022-08-21T08:01:42;22.50;85.80
41437;DHT22;27178;49.460;10.850;2022-08-21T08:04:11;22.60;85.40
41437;DHT22;27178;49.460;10.850;2022-08-21T08:06:39;22.60;85.40
41437;DHT22;27178;49.460;10.850;2022-08-21T08:09:07;22.60;85.00
41437;DHT22;27178;49.460;10.850;2022-08-21T08:11:39;22.60;84.60
41437;DHT22;27178;49.460;10.850;2022-08-21T08:14:10;22.60;84.10
41437;DHT22;27178;49.460;10.850;2022-08-21T08:16:39;22.60;83.60
41437;DHT22;27178;49.460;10.850;2022-08-21T08:19:09;22.60;83.10
41437;DHT22;27178;49.460;10.850;2022-08-21T08:21:38;22.60;82.80
41437;DHT22;27178;49.460;10.850;2022-08-21T08:24:07;22.60;82.70
41437;DHT22;27178;49.460;10.850;2022-08-21T08:26:45;22.60;82.10
41437;DHT22;27178;49.460;10.850;2022-08-21T08:29:20;22.60;81.80
41437;DHT22;27178;49.460;10.850;2022-08-21T08:31:48;22.60;81.80
41437;DHT22;27178;49.460;10.850;2022-08-21T08:34:18;22.60;82.40
41437;DHT22;27178;49.460;10.850;2022-08-21T08:36:51;22.60;81.20
41437;DHT22;27178;49.460;10.850;2022-08-21T08:39:20;22.70;80.70
41437;DHT22;27178;49.460;10.850;2022-08-21T08:41:59;22.70;80.30
41437;DHT22;27178;49.460;10.850;2022-08-21T08:44:55;22.70;79.70
41437;DHT22;27178;49.460;10.850;2022-08-21T08:47:26;22.70;79.60
41437;DHT22;27178;49.460;10.850;2022-08-21T08:50:03;22.70;80.50
41437;DHT22;27178;49.460;10.850;2022-08-21T08:52:33;22.70;79.60
41437;DHT22;27178;49.460;10.850;2022-08-21T08:55:05;22.70;79.70
41437;DHT22;27178;49.460;10.850;2022-08-21T08:57:35;22.70;79.90
41437;DHT22;27178;49.460;10.850;2022-08-21T09:00:07;22.80;80.10
41437;DHT22;27178;49.460;10.850;2022-08-21T09:02:38;22.80;79.90
41437;DHT22;27178;49.460;10.850;2022-08-21T09:05:15;22.80;79.70
41437;DHT22;27178;49.460;10.850;2022-08-21T09:07:54;22.80;78.70
41437;DHT22;27178;49.460;10.850;2022-08-21T09:10:30;22.90;78.90
41437;DHT22;27178;49.460;10.850;2022-08-21T09:13:09;22.90;78.40
41437;DHT22;27178;49.460;10.850;2022-08-21T09:15:47;23.00;78.10
41437;DHT22;27178;49.460;10.850;2022-08-21T09:18:29;23.00;78.00
41437;DHT22;27178;49.460;10.850;2022-08-21T09:21:11;23.00;77.90
41437;DHT22;27178;49.460;10.850;2022-08-21T09:23:49;23.10;78.50
41437;DHT22;27178;49.460;10.850;2022-08-21T09:26:24;23.10;79.00
41437;DHT22;27178;49.460;10.850;2022-08-21T09:28:56;23.10;78.20
41437;DHT22;27178;49.460;10.850;2022-08-21T09:31:30;23.20;78.30
41437;DHT22;27178;49.460;10.850;2022-08-21T09:34:00;23.20;78.00
41437;DHT22;27178;49.460;10.850;2022-08-21T09:36:37;23.20;78.30
41437;DHT22;27178;49.460;10.850;2022-08-21T09:39:07;23.30;76.80
41437;DHT22;27178;49.460;10.850;2022-08-21T09:41:37;23.30;78.40
41437;DHT22;27178;49.460;10.850;2022-08-21T09:44:08;23.30;77.70
41437;DHT22;27178;49.460;10.850;2022-08-21T09:46:36;23.40;77.20
41437;DHT22;27178;49.460;10.850;2022-08-21T09:49:05;23.40;77.50
41437;DHT22;27178;49.460;10.850;2022-08-21T09:51:50;23.40;76.60
41437;DHT22;27178;49.460;10.850;2022-08-21T09:54:21;23.50;75.30
41437;DHT22;27178;49.460;10.850;2022-08-21T09:56:55;23.50;76.20
41437;DHT22;27178;49.460;10.850;2022-08-21T09:59:43;23.50;76.10
41437;DHT22;27178;49.460;10.850;2022-08-21T10:02:25;23.60;76.50
41437;DHT22;27178;49.460;10.850;2022-08-21T10:04:55;23.60;75.10
41437;DHT22;27178;49.460;10.850;2022-08-21T10:07:28;23.70;76.00
41437;DHT22;27178;49.460;10.850;2022-08-21T10:10:02;23.70;75.30
41437;DHT22;27178;49.460;10.850;2022-08-21T10:12:39;23.70;75.10
41437;DHT22;27178;49.460;10.850;2022-08-21T10:15:17;23.80;75.40
41437;DHT22;27178;49.460;10.850;2022-08-21T10:17:54;23.80;74.30
41437;DHT22;27178;49.460;10.850;2022-08-21T10:20:30;23.90;74.90
41437;DHT22;27178;49.460;10.850;2022-08-21T10:23:15;24.00;74.40
41437;DHT22;27178;49.460;10.850;2022-08-21T10:25:52;24.10;73.70
41437;DHT22;27178;49.460;10.850;2022-08-21T10:28:44;24.10;73.50
41437;DHT22;27178;49.460;10.850;2022-08-21T10:31:23;24.20;73.70
41437;DHT22;27178;49.460;10.850;2022-08-21T10:34:08;24.30;72.80
41437;DHT22;27178;49.460;10.850;2022-08-21T10:36:46;24.40;71.10
41437;DHT22;27178;49.460;10.850;2022-08-21T10:39:21;24.50;72.00
41437;DHT22;27178;49.460;10.850;2022-08-21T10:42:17;24.60;71.40
41437;DHT22;27178;49.460;10.850;2022-08-21T10:47:48;24.70;70.20
41437;DHT22;27178;49.460;10.850;2022-08-21T10:50:30;24.80;71.20
41437;DHT22;27178;49.460;10.850;2022-08-21T10:53:15;24.90;70.40
41437;DHT22;27178;49.460;10.850;2022-08-21T10:55:50;25.00;70.10
41437;DHT22;27178;49.460;10.850;2022-08-21T10:58:27;25.10;70.60
41437;DHT22;27178;49.460;10.850;2022-08-21T11:01:00;25.30;69.90
41437;DHT22;27178;49.460;10.850;2022-08-21T11:03:34;25.30;70.90
41437;DHT22;27178;49.460;10.850;2022-08-21T11:06:07;25.40;70.00
41437;DHT22;27178;49.460;10.850;2022-08-21T11:08:39;25.50;70.00
41437;DHT22;27178;49.460;10.850;2022-08-21T11:11:15;25.60;70.00
41437;DHT22;27178;49.460;10.850;2022-08-21T11:13:51;25.80;69.70
41437;DHT22;27178;49.460;10.850;2022-08-21T11:16:31;25.90;69.10
41437;DHT22;27178;49.460;10.850;2022-08-21T11:19:05;26.00;68.40
41437;DHT22;27178;49.460;10.850;2022-08-21T11:21:39;26.10;67.80
41437;DHT22;27178;49.460;10.850;2022-08-21T11:24:21;26.20;67.70
41437;DHT22;27178;49.460;10.850;2022-08-21T11:26:59;26.30;66.30
41437;DHT22;27178;49.460;10.850;2022-08-21T11:29:33;26.40;66.80
41437;DHT22;27178;49.460;10.850;2022-08-21T11:32:20;26.60;67.30
41437;DHT22;27178;49.460;10.850;2022-08-21T11:34:58;26.70;66.00
41437;DHT22;27178;49.460;10.850;2022-08-21T11:37:41;26.80;66.50
41437;DHT22;27178;49.460;10.850;2022-08-21T11:40:20;26.90;65.30
41437;DHT22;27178;49.460;10.850;2022-08-21T11:43:02;27.00;65.20
41437;DHT22;27178;49.460;10.850;2022-08-21T11:45:39;27.00;64.50
41437;DHT22;27178;49.460;10.850;2022-08-21T11:48:16;27.20;64.50
41437;DHT22;27178;49.460;10.850;2022-08-21T11:50:48;27.20;63.20
41437;DHT22;27178;49.460;10.850;2022-08-21T11:53:22;27.20;63.50
41437;DHT22;27178;49.460;10.850;2022-08-21T11:55:58;27.10;61.80
41437;DHT22;27178;49.460;10.850;2022-08-21T11:58:35;27.10;62.40
41437;DHT22;27178;49.460;10.850;2022-08-21T12:01:08;27.50;62.60
41437;DHT22;27178;49.460;10.850;2022-08-21T12:03:40;27.00;62.10
41437;DHT22;27178;49.460;10.850;2022-08-21T12:06:13;27.10;62.90
41437;DHT22;27178;49.460;10.850;2022-08-21T12:08:58;27.20;62.20
41437;DHT22;27178;49.460;10.850;2022-08-21T12:11:27;27.20;61.20
41437;DHT22;27178;49.460;10.850;2022-08-21T12:14:10;27.20;62.20
41437;DHT22;27178;49.460;10.850;2022-08-21T12:16:41;27.10;60.90
41437;DHT22;27178;49.460;10.850;2022-08-21T12:19:12;27.00;61.40
41437;DHT22;27178;49.460;10.850;2022-08-21T12:21:49;27.00;61.30
41437;DHT22;27178;49.460;10.850;2022-08-21T12:24:30;27.00;60.20
41437;DHT22;27178;49.460;10.850;2022-08-21T12:27:14;26.90;61.90
41437;DHT22;27178;49.460;10.850;2022-08-21T12:29:51;26.90;60.90
41437;DHT22;27178;49.460;10.850;2022-08-21T12:32:25;26.90;61.60
41437;DHT22;27178;49.460;10.850;2022-08-21T12:34:58;27.00;62.10
41437;DHT22;27178;49.460;10.850;2022-08-21T12:37:37;27.10;62.50
41437;DHT22;27178;49.460;10.850;2022-08-21T12:40:13;27.20;60.90
41437;DHT22;27178;49.460;10.850;2022-08-21T12:42:45;27.20;60.00
41437;DHT22;27178;49.460;10.850;2022-08-21T12:45:30;27.20;60.30
41437;DHT22;27178;49.460;10.850;2022-08-21T12:48:01;27.20;59.80
41437;DHT22;27178;49.460;10.850;2022-08-21T12:50:37;27.10;59.80
41437;DHT22;27178;49.460;10.850;2022-08-21T12:53:09;27.00;59.60
41437;DHT22;27178;49.460;10.850;2022-08-21T12:55:46;27.00;59.60
41437;DHT22;27178;49.460;10.850;2022-08-21T12:58:19;27.00;60.90
41437;DHT22;27178;49.460;10.850;2022-08-21T13:00:53;27.00;60.60
41437;DHT22;27178;49.460;10.850;2022-08-21T13:03:23;27.10;60.10
41437;DHT22;27178;49.460;10.850;2022-08-21T13:05:52;27.30;61.80
41437;DHT22;27178;49.460;10.850;2022-08-21T13:08:22;27.50;61.70
41437;DHT22;27178;49.460;10.850;2022-08-21T13:10:58;27.70;61.00
41437;DHT22;27178;49.460;10.850;2022-08-21T13:13:42;27.10;59.70
41437;DHT22;27178;49.460;10.850;2022-08-21T13:16:22;28.20;60.70
41437;DHT22;27178;49.460;10.850;2022-08-21T13:18:58;28.40;59.10
41437;DHT22;27178;49.460;10.850;2022-08-21T13:21:32;28.60;58.80
41437;DHT22;27178;49.460;10.850;2022-08-21T13:24:12;28.80;58.00
41437;DHT22;27178;49.460;10.850;2022-08-21T13:27:01;29.10;58.20
41437;DHT22;27178;49.460;10.850;2022-08-21T13:29:32;29.20;59.00
41437;DHT22;27178;49.460;10.850;2022-08-21T13:32:06;29.40;58.40
41437;DHT22;27178;49.460;10.850;2022-08-21T13:34:36;29.60;57.70
41437;DHT22;27178;49.460;10.850;2022-08-21T13:37:11;29.70;57.50
41437;DHT22;27178;49.460;10.850;2022-08-21T13:39:40;29.90;57.30
41437;DHT22;27178;49.460;10.850;2022-08-21T13:42:11;30.00;57.20
41437;DHT22;27178;49.460;10.850;2022-08-21T13:44:43;30.20;56.80
41437;DHT22;27178;49.460;10.850;2022-08-21T13:47:14;30.30;56.30
41437;DHT22;27178;49.460;10.850;2022-08-21T13:49:45;30.50;56.10
41437;DHT22;27178;49.460;10.850;2022-08-21T13:52:16;30.60;56.20
41437;DHT22;27178;49.460;10.850;2022-08-21T13:54:53;30.70;55.90
41437;DHT22;27178;49.460;10.850;2022-08-21T13:57:28;30.90;54.90
41437;DHT22;27178;49.460;10.850;2022-08-21T14:00:15;31.00;54.90
41437;DHT22;27178;49.460;10.850;2022-08-21T14:02:48;31.10;54.10
41437;DHT22;27178;49.460;10.850;2022-08-21T14:05:21;31.20;54.90
41437;DHT22;27178;49.460;10.850;2022-08-21T14:07:50;31.30;55.10
41437;DHT22;27178;49.460;10.850;2022-08-21T14:10:22;31.40;55.00
41437;DHT22;27178;49.460;10.850;2022-08-21T14:12:59;31.50;54.30
41437;DHT22;27178;49.460;10.850;2022-08-21T14:15:31;31.60;53.90
41437;DHT22;27178;49.460;10.850;2022-08-21T14:18:12;31.60;53.60
41437;DHT22;27178;49.460;10.850;2022-08-21T14:20:41;31.70;52.10
41437;DHT22;27178;49.460;10.850;2022-08-21T14:23:11;31.70;53.70
41437;DHT22;27178;49.460;10.850;2022-08-21T14:25:42;31.80;53.30
41437;DHT22;27178;49.460;10.850;2022-08-21T14:28:19;31.80;52.80
41437;DHT22;27178;49.460;10.850;2022-08-21T14:30:54;31.80;52.10
41437;DHT22;27178;49.460;10.850;2022-08-21T14:33:26;31.80;52.60
41437;DHT22;27178;49.460;10.850;2022-08-21T14:35:55;31.80;52.50
41437;DHT22;27178;49.460;10.850;2022-08-21T14:38:25;31.90;52.90
41437;DHT22;27178;49.460;10.850;2022-08-21T14:40:57;31.90;52.60
41437;DHT22;27178;49.460;10.850;2022-08-21T14:43:27;31.90;51.80
41437;DHT22;27178;49.460;10.850;2022-08-21T14:45:57;31.90;52.50
41437;DHT22;27178;49.460;10.850;2022-08-21T14:48:27;31.90;52.70
41437;DHT22;27178;49.460;10.850;2022-08-21T14:50:55;31.90;52.40
41437;DHT22;27178;49.460;10.850;2022-08-21T14:53:26;31.90;53.20
41437;DHT22;27178;49.460;10.850;2022-08-21T14:55:54;31.90;52.30
41437;DHT22;27178;49.460;10.850;2022-08-21T14:58:38;31.80;51.90
41437;DHT22;27178;49.460;10.850;2022-08-21T15:01:08;31.80;51.70
41437;DHT22;27178;49.460;10.850;2022-08-21T15:03:39;31.80;52.00
41437;DHT22;27178;49.460;10.850;2022-08-21T15:06:08;31.70;51.60
41437;DHT22;27178;49.460;10.850;2022-08-21T15:08:37;31.70;51.10
41437;DHT22;27178;49.460;10.850;2022-08-21T15:11:06;31.60;51.20
41437;DHT22;27178;49.460;10.850;2022-08-21T15:13:39;31.60;51.70
41437;DHT22;27178;49.460;10.850;2022-08-21T15:16:09;31.60;51.80
41437;DHT22;27178;49.460;10.850;2022-08-21T15:18:40;31.50;52.00
41437;DHT22;27178;49.460;10.850;2022-08-21T15:21:09;31.50;51.60
41437;DHT22;27178;49.460;10.850;2022-08-21T15:23:37;31.40;51.80
41437;DHT22;27178;49.460;10.850;2022-08-21T15:26:09;31.40;51.60
41437;DHT22;27178;49.460;10.850;2022-08-21T15:28:38;31.40;52.40
41437;DHT22;27178;49.460;10.850;2022-08-21T15:31:07;31.30;52.20
41437;DHT22;27178;49.460;10.850;2022-08-21T15:33:35;31.20;52.10
41437;DHT22;27178;49.460;10.850;2022-08-21T15:36:06;31.20;52.20
41437;DHT22;27178;49.460;10.850;2022-08-21T15:38:34;31.20;51.20
41437;DHT22;27178;49.460;10.850;2022-08-21T15:41:03;31.40;52.00
41437;DHT22;27178;49.460;10.850;2022-08-21T15:43:37;31.10;52.80
41437;DHT22;27178;49.460;10.850;2022-08-21T15:46:09;31.20;52.50
41437;DHT22;27178;49.460;10.850;2022-08-21T15:48:38;31.10;51.60